• Join FlightAware (Why Join?)
  • Login
  • US Flag 
11:20PM EDT


 

Airport Tracker/Info


-or-


 

Live Flight TrackerFlight Track Log ✈ ASQ4209 ✈ 15-Jun-2013 ✈ KBTR - KIAH

Flight Track Log - Related Links

Times and Time Zones

All times are in EDT time to prevent confusion due to time zone crossing. See the ASQ4209 flight status page for this flight to view local times or setup timezone preferences in your user account.

Time Position Orientation Groundspeed Altitude Reporting Facility
EDT Latitude Longitude Course Direction KTS MPH feet Rate Location/Type
04:16PM 30.6142 -91.1289 325° Northwest 195 224 5,000  Level Houston Center
04:17PM 30.5889 -91.1997 247° West 234 269 7,100 1,860 Climbing Houston Center
04:18PM 30.4518 -91.6006 263° West  Level FlightAware Approximate
04:18PM 30.5539 -91.2722 241° Southwest 254 292 8,900  Level Houston Center
04:19PM 30.4264 -91.6920 227° Southwest  Level FlightAware Approximate
04:19PM 30.5025 -91.3703 239° Southwest 294 338 10,600  Level Houston Center
04:20PM 30.3643 -91.7695 226° Southwest  Level FlightAware Approximate
04:20PM 30.4467 -91.4622 235° Southwest 340 391 11,100  Level Houston Center
04:21PM 30.3892 -91.5622 236° Southwest 369 425 11,900 720 Climbing Houston Center
04:22PM 30.3286 -91.6656 236° Southwest 383 441 12,700 900 Climbing Houston Center
04:23PM 30.2594 -91.7811 235° Southwest 389 448 13,800 1,260 Climbing Houston Center
04:24PM 30.1986 -91.8836 236° Southwest 386 444 15,300 1,440 Climbing Houston Center
04:25PM 30.1431 -91.9908 239° Southwest 371 427 16,800 1,440 Climbing Houston Center
04:26PM 30.0994 -92.0964 244° Southwest 366 421 18,300 1,200 Climbing Houston Center
04:27PM 30.0728 -92.2106 255° West 368 423 19,400 1,020 Climbing Houston Center
04:28PM 30.0136 -92.3086 235° Southwest 375 432 20,400 780 Climbing Houston Center
04:29PM 29.9469 -92.4053 231° Southwest 382 440 21,000 540 Climbing Houston Center
04:30PM 29.8783 -92.5061 232° Southwest 393 452 21,600 540 Climbing Houston Center
04:31PM 29.8081 -92.6081 232° Southwest 401 461 22,200 540 Climbing Houston Center
04:32PM 29.7367 -92.7111 231° Southwest 409 471 22,800 360 Climbing Houston Center
04:33PM 29.6508 -92.8372 232° Southwest 415 478 23,000 60 Climbing Houston Center
04:34PM 29.5767 -92.9431 231° Southwest 423 487 23,000  Level Houston Center
04:35PM 29.5042 -93.0550 233° Southwest 433 498 23,000  Level Houston Center
04:36PM 29.4894 -93.1836 263° West 408 470 23,000  Level Houston Center
04:37PM 29.4944 -93.3089 273° West 395 455 23,000  Level Houston Center
04:38PM 29.4997 -93.4358 273° West 397 457 23,000  Level Houston Center
04:39PM 29.5044 -93.5678 272° West 409 471 23,000  Level Houston Center
04:40PM 29.5097 -93.7017 273° West 417 480 23,000 -960 Level Houston Center
04:41PM 29.5158 -93.8611 273° West 417 480 21,100 -2,100 Descending Houston Center
04:42PM 29.5194 -93.9697 272° West 413 475 19,100 -2,520 Descending Houston Center
04:43PM 29.5239 -94.0964 272° West 381 438 16,500 -2,520 Descending Houston Center
04:44PM 29.5264 -94.2044 272° West 378 435 14,300 -2,220 Descending Houston Center
04:44PM 29.5283 -94.2361 274° West 379 436 13,800 -1,020 Descending Houston Center
04:46PM 29.5389 -94.3525 276° West 371 427 13,000 -840 Descending Houston Center
04:46PM 29.5808 -94.4328 301° West 369 425 12,400 -780 Descending Houston Center
04:47PM 29.5917 -94.4483 309° West 361 415 12,200 -900 Descending Houston Center
04:47PM 29.6419 -94.5186 309° West 356 410 11,500 -1,020 Descending Houston Center
04:48PM 29.6556 -94.5350 314° West 359 413 11,200 -1,020 Descending Houston Center
04:48PM 29.7072 -94.6067 310° West 335 386 10,500 -900 Descending Houston Center
04:49PM 29.7167 -94.6183 313° West 349 402 10,300 -1,500 Descending Houston Center
04:49PM 29.7653 -94.6858 310° West 308 354 9,000 -1,800 Descending Houston Center
04:50PM 29.7828 -94.7072 313° West 316 364 8,500 -1,380 Descending Houston Center
04:50PM 29.8233 -94.7653 309° West 296 341 7,500 -1,260 Descending Houston Center
04:51PM 29.8353 -94.7814 311° West 304 350 7,200 -1,200 Descending Houston Center
04:51PM 29.8717 -94.8292 311° West 287 330 6,400 -1,080 Descending Houston Center
04:52PM 29.8867 -94.8492 311° West 288 331 6,100 -1,020 Descending Houston Center
04:52PM 29.9275 -94.9089 308° West 274 315 5,300 -1,020 Descending Houston Center
04:53PM 29.9344 -94.9172 314° West 277 319 5,100 -900 Descending Houston Center
04:54PM 29.9786 -94.9819 308° West 269 310 4,300 -960 Descending Houston Center
04:54PM 29.9939 -95.0550 284° West 262 302 3,500 -900 Descending Houston Center
04:55PM 29.9942 -95.0825 271° West 261 300 3,200 -960 Descending Houston Center